createdAt,value
2023-02-26T00:00:52.286Z,99
2023-02-26T00:10:52.239Z,99
2023-02-26T00:20:52.175Z,99
2023-02-26T00:30:52.155Z,99
2023-02-26T00:40:51.988Z,99
2023-02-26T00:50:51.962Z,99
2023-02-26T01:00:51.855Z,99
2023-02-26T01:10:51.828Z,99
2023-02-26T01:20:51.821Z,99
2023-02-26T01:30:51.757Z,99
2023-02-26T01:40:51.599Z,99
2023-02-26T01:50:51.537Z,99
2023-02-26T02:00:51.462Z,97
2023-02-26T02:10:51.391Z,99
2023-02-26T02:20:51.328Z,99
2023-02-26T02:30:51.284Z,99
2023-02-26T02:40:51.162Z,99
2023-02-26T02:50:51.101Z,87
2023-02-26T03:00:51.057Z,88
2023-02-26T03:10:50.970Z,90
2023-02-26T03:20:50.894Z,92
2023-02-26T03:30:50.850Z,97
2023-02-26T03:40:50.763Z,99
2023-02-26T03:50:50.688Z,99
2023-02-26T04:00:50.596Z,99
2023-02-26T04:10:50.517Z,99
2023-02-26T04:20:50.457Z,99
2023-02-26T04:30:50.568Z,99
2023-02-26T04:40:50.282Z,99
2023-02-26T04:50:50.234Z,99
2023-02-26T05:00:50.213Z,98
2023-02-26T05:10:50.078Z,82
2023-02-26T05:20:50.016Z,90
2023-02-26T05:30:50.000Z,97
2023-02-26T05:40:49.881Z,90
2023-02-26T05:50:49.889Z,80
2023-02-26T06:00:49.760Z,90
2023-02-26T06:10:49.638Z,97
2023-02-26T06:20:49.575Z,99
2023-02-26T06:30:49.559Z,90
2023-02-26T06:40:49.463Z,98
2023-02-26T06:50:49.490Z,99
2023-02-26T07:00:49.382Z,99
2023-02-26T07:10:49.411Z,99
2023-02-26T07:20:49.144Z,99
2023-02-26T07:30:49.187Z,99
2023-02-26T07:40:49.124Z,99
2023-02-26T07:50:48.991Z,99
2023-02-26T08:00:48.919Z,99
2023-02-26T08:10:48.878Z,99
2023-02-26T08:20:48.851Z,99
2023-02-26T08:30:48.778Z,99
2023-02-26T08:33:55.701Z,99
2023-02-26T08:43:55.383Z,99
2023-02-26T08:53:55.260Z,99
2023-02-26T09:03:55.236Z,99
2023-02-26T09:13:55.172Z,99
2023-02-26T09:23:55.153Z,99
2023-02-26T09:33:55.000Z,99
2023-02-26T09:43:55.005Z,99
2023-02-26T09:53:54.858Z,99
2023-02-26T10:03:54.868Z,99
2023-02-26T10:13:57.951Z,99
2023-02-26T10:23:54.847Z,99
2023-02-26T10:33:54.646Z,99
2023-02-26T10:43:54.549Z,99
2023-02-26T10:53:54.384Z,99
2023-02-26T11:03:54.316Z,99
2023-02-26T11:13:54.313Z,99
2023-02-26T11:23:54.222Z,99
2023-02-26T11:33:54.128Z,99
2023-02-26T11:43:54.132Z,99
2023-02-26T11:53:54.054Z,99
2023-02-26T12:03:54.042Z,99
2023-02-26T12:13:53.844Z,99
2023-02-26T12:23:53.778Z,99
2023-02-26T12:33:53.770Z,99
2023-02-26T12:43:53.699Z,99
2023-02-26T12:53:53.545Z,99
2023-02-26T13:03:53.579Z,99
2023-02-26T13:13:53.407Z,99
2023-02-26T13:23:53.429Z,99
2023-02-26T13:33:53.360Z,1
2023-02-26T13:43:53.371Z,1
2023-02-26T13:53:53.200Z,99
2023-02-26T14:03:53.121Z,99
2023-02-26T14:13:52.955Z,99
2023-02-26T14:23:52.882Z,99
2023-02-26T14:33:52.836Z,99
2023-02-26T14:43:52.746Z,99
2023-02-26T14:53:52.708Z,99
2023-02-26T15:03:52.605Z,99
2023-02-26T15:13:52.690Z,99
2023-02-26T15:23:52.492Z,99
2023-02-26T15:33:52.424Z,99
2023-02-26T15:43:52.371Z,99
2023-02-26T15:53:52.275Z,99
2023-02-26T16:03:52.259Z,99
2023-02-26T16:13:52.121Z,1
2023-02-26T16:23:52.185Z,1
2023-02-26T16:33:52.041Z,1
2023-02-26T16:43:51.983Z,1
2023-02-26T16:53:51.804Z,1
2023-02-26T17:03:51.861Z,1
2023-02-26T17:13:51.644Z,1
2023-02-26T17:23:51.672Z,1
2023-02-26T17:33:51.530Z,1
2023-02-26T17:43:51.430Z,1
2023-02-26T17:53:51.438Z,1
2023-02-26T18:03:51.414Z,1
2023-02-26T18:13:51.307Z,1
2023-02-26T18:23:51.170Z,1
2023-02-26T18:33:51.141Z,1
2023-02-26T18:43:51.032Z,1
2023-02-26T18:53:50.967Z,1
2023-02-26T19:03:50.888Z,1
2023-02-26T19:13:52.549Z,1
2023-02-26T19:23:50.741Z,1
2023-02-26T19:33:50.671Z,1
2023-02-26T19:43:50.602Z,1
2023-02-26T19:53:50.600Z,1
2023-02-26T20:03:50.442Z,1
2023-02-26T20:13:50.426Z,1
2023-02-26T20:23:50.306Z,1
2023-02-26T20:33:50.387Z,1
2023-02-26T20:43:50.221Z,1
2023-02-26T20:53:50.231Z,1
2023-02-26T21:03:50.051Z,1
2023-02-26T21:13:49.956Z,1
2023-02-26T21:23:49.902Z,99
2023-02-26T21:33:49.791Z,99
2023-02-26T21:43:49.853Z,80
2023-02-26T21:53:49.686Z,67
2023-02-26T22:03:49.536Z,58
2023-02-26T22:13:49.534Z,48
2023-02-26T22:23:49.456Z,54
2023-02-26T22:33:49.435Z,38
2023-02-26T22:43:49.449Z,39
2023-02-26T22:53:49.256Z,46
2023-02-26T23:03:49.124Z,37
2023-02-26T23:13:49.116Z,47
2023-02-26T23:23:48.963Z,27
2023-02-26T23:33:48.901Z,24
2023-02-26T23:43:48.823Z,29
2023-02-26T23:53:48.727Z,15
